createdAt,value
2019-02-06T00:00:58.535Z,-3.20
2019-02-06T00:03:28.078Z,-3.30
2019-02-06T00:05:57.665Z,-3.20
2019-02-06T00:08:27.206Z,-3.20
2019-02-06T00:10:56.774Z,-3.20
2019-02-06T00:13:26.394Z,-3.20
2019-02-06T00:15:56.200Z,-3.20
2019-02-06T00:18:25.952Z,-3.20
2019-02-06T00:20:55.533Z,-3.20
2019-02-06T00:23:25.115Z,-3.20
2019-02-06T00:25:54.667Z,-3.20
2019-02-06T00:28:24.234Z,-3.20
2019-02-06T00:30:53.950Z,-3.20
2019-02-06T00:33:23.559Z,-3.20
2019-02-06T00:35:53.112Z,-3.30
2019-02-06T00:38:22.667Z,-3.30
2019-02-06T00:40:52.308Z,-3.20
2019-02-06T00:43:21.952Z,-3.20
2019-02-06T00:45:51.669Z,-3.20
2019-02-06T00:48:21.158Z,-3.20
2019-02-06T00:50:50.730Z,-3.20
2019-02-06T00:53:20.306Z,-3.30
2019-02-06T00:55:49.834Z,-3.40
2019-02-06T00:58:19.415Z,-3.50
2019-02-06T01:00:49.067Z,-3.50
2019-02-06T01:03:18.638Z,-3.50
2019-02-06T01:05:48.319Z,-3.60
2019-02-06T01:08:17.981Z,-3.60
2019-02-06T01:10:47.621Z,-3.60
2019-02-06T01:13:17.188Z,-3.60
2019-02-06T01:15:47.023Z,-3.50
2019-02-06T01:18:16.586Z,-3.50
2019-02-06T01:20:46.211Z,-3.40
2019-02-06T01:23:16.416Z,-3.50
2019-02-06T01:25:46.106Z,-3.50
2019-02-06T01:28:15.667Z,-3.50
2019-02-06T01:30:49.723Z,-3.60
2019-02-06T01:33:19.291Z,-3.50
2019-02-06T01:35:50.165Z,-3.50
2019-02-06T01:38:19.942Z,-3.60
2019-02-06T01:40:49.499Z,-3.50
2019-02-06T01:43:19.370Z,-3.60
2019-02-06T01:45:48.974Z,-3.70
2019-02-06T01:48:18.502Z,-3.70
2019-02-06T01:50:48.122Z,-3.70
2019-02-06T01:53:17.686Z,-3.80
2019-02-06T01:55:47.351Z,-3.80
2019-02-06T01:58:17.183Z,-3.90
2019-02-06T02:00:46.807Z,-3.90
2019-02-06T02:03:16.393Z,-4.00
2019-02-06T02:05:46.184Z,-4.00
2019-02-06T02:08:15.824Z,-4.00
2019-02-06T02:10:45.603Z,-4.00
2019-02-06T02:13:15.252Z,-4.10
2019-02-06T02:15:44.790Z,-4.20
2019-02-06T02:18:14.418Z,-4.30
2019-02-06T02:20:43.949Z,-4.30
2019-02-06T02:23:13.542Z,-4.30
2019-02-06T02:25:43.078Z,-4.30
2019-02-06T02:28:12.669Z,-4.40
2019-02-06T02:30:48.342Z,-4.30
2019-02-06T02:33:17.926Z,-4.30
2019-02-06T02:35:47.486Z,-4.30
2019-02-06T02:38:17.109Z,-4.40
2019-02-06T02:40:46.645Z,-4.30
2019-02-06T02:43:16.223Z,-4.30
2019-02-06T02:45:45.789Z,-4.30
2019-02-06T02:48:15.475Z,-4.30
2019-02-06T02:50:45.054Z,-4.20
2019-02-06T02:53:15.024Z,-4.30
2019-02-06T02:55:44.646Z,-4.30
2019-02-06T02:58:14.185Z,-4.30
2019-02-06T03:01:05.447Z,-4.30
2019-02-06T03:04:08.936Z,-4.30
2019-02-06T03:06:39.418Z,-4.30
2019-02-06T03:09:12.725Z,-4.20
2019-02-06T03:11:42.313Z,-4.20
2019-02-06T03:14:12.201Z,-4.20
2019-02-06T03:16:41.854Z,-4.20
2019-02-06T03:19:11.599Z,-4.30
2019-02-06T03:21:41.591Z,-4.30
2019-02-06T03:24:11.167Z,-4.20
2019-02-06T03:26:40.788Z,-4.20
2019-02-06T03:29:10.570Z,-4.20
2019-02-06T03:31:40.121Z,-4.20
2019-02-06T03:34:09.697Z,-4.30
2019-02-06T03:36:40.832Z,-4.40
2019-02-06T03:39:10.749Z,-4.40
2019-02-06T03:41:40.294Z,-4.50
2019-02-06T03:44:10.190Z,-4.50
2019-02-06T03:46:39.779Z,-4.50
2019-02-06T03:49:09.503Z,-4.50
2019-02-06T03:51:39.122Z,-4.50
2019-02-06T03:54:08.653Z,-4.50
2019-02-06T03:56:38.254Z,-4.60
2019-02-06T03:59:08.183Z,-4.50
2019-02-06T04:01:37.926Z,-4.50
2019-02-06T04:04:07.514Z,-4.50
2019-02-06T04:06:37.117Z,-4.50
2019-02-06T04:09:08.918Z,-4.50
2019-02-06T04:11:38.510Z,-4.50
2019-02-06T04:14:08.517Z,-4.60
2019-02-06T04:16:39.114Z,-4.60
2019-02-06T04:19:08.751Z,-4.40
2019-02-06T04:21:38.330Z,-4.40
2019-02-06T04:24:08.194Z,-4.30
2019-02-06T04:26:37.768Z,-4.40
2019-02-06T04:29:07.688Z,-4.30
2019-02-06T04:31:38.661Z,-4.30
2019-02-06T04:34:08.646Z,-4.50
2019-02-06T04:36:40.975Z,-4.50
2019-02-06T04:39:10.551Z,-4.40
2019-02-06T04:41:40.423Z,-4.50
2019-02-06T04:44:09.970Z,-4.50
2019-02-06T04:46:39.644Z,-4.50
2019-02-06T04:49:09.569Z,-4.50
2019-02-06T04:51:39.103Z,-4.50
2019-02-06T04:54:08.766Z,-4.40
2019-02-06T04:56:38.645Z,-4.40
2019-02-06T04:59:08.243Z,-4.50
2019-02-06T05:01:37.817Z,-4.50
2019-02-06T05:04:07.752Z,-4.50
2019-02-06T05:06:40.211Z,-4.60
2019-02-06T05:09:09.794Z,-4.60
2019-02-06T05:11:40.083Z,-4.60
2019-02-06T05:14:09.857Z,-4.60
2019-02-06T05:16:39.579Z,-4.70
2019-02-06T05:19:09.279Z,-4.60
2019-02-06T05:21:39.173Z,-4.60
2019-02-06T05:24:08.921Z,-4.60
2019-02-06T05:26:38.792Z,-4.60
2019-02-06T05:29:08.498Z,-4.50
2019-02-06T05:31:38.444Z,-4.60
2019-02-06T05:34:08.333Z,-4.60
2019-02-06T05:36:38.131Z,-4.70
2019-02-06T05:39:09.292Z,-4.60
2019-02-06T05:41:39.278Z,-4.60
2019-02-06T05:44:08.903Z,-4.60
2019-02-06T05:46:38.454Z,-4.50
2019-02-06T05:49:08.119Z,-4.50
2019-02-06T05:51:37.716Z,-4.50
2019-02-06T05:54:07.304Z,-4.50
2019-02-06T05:56:39.860Z,-4.50
2019-02-06T05:59:09.418Z,-4.50
2019-02-06T06:01:39.192Z,-4.60
2019-02-06T06:04:08.788Z,-4.60
2019-02-06T06:06:38.353Z,-4.60
2019-02-06T06:09:09.175Z,-4.60
2019-02-06T06:11:38.959Z,-4.60
2019-02-06T06:14:08.540Z,-4.60
2019-02-06T06:16:38.156Z,-4.60
2019-02-06T06:19:07.714Z,-4.60
2019-02-06T06:21:37.583Z,-4.60
2019-02-06T06:24:09.140Z,-4.60
2019-02-06T06:26:38.490Z,-4.60
2019-02-06T06:29:08.096Z,-4.60
2019-02-06T06:31:37.660Z,-4.60
2019-02-06T06:34:07.280Z,-4.60
2019-02-06T06:36:36.876Z,-4.60
2019-02-06T06:39:08.434Z,-4.60
2019-02-06T06:41:38.331Z,-4.60
2019-02-06T06:44:07.854Z,-4.50
2019-02-06T06:46:37.435Z,-4.50
2019-02-06T06:49:07.047Z,-4.50
2019-02-06T06:51:36.713Z,-4.50
2019-02-06T06:54:06.426Z,-4.40
2019-02-06T06:56:36.274Z,-4.30
2019-02-06T06:59:05.962Z,-4.30
2019-02-06T07:01:35.490Z,-4.30
2019-02-06T07:04:05.322Z,-4.40
2019-02-06T07:06:34.866Z,-4.10
2019-02-06T07:09:06.647Z,-4.00
2019-02-06T07:11:36.206Z,-3.90
2019-02-06T07:14:05.791Z,-4.10
2019-02-06T07:16:35.363Z,-4.10
2019-02-06T07:19:04.976Z,-4.00
2019-02-06T07:21:34.525Z,-3.80
2019-02-06T07:24:04.094Z,-3.80
2019-02-06T07:26:33.669Z,-3.70
2019-02-06T07:29:03.349Z,-3.70
2019-02-06T07:31:33.012Z,-3.50
2019-02-06T07:34:02.568Z,-3.60
2019-02-06T07:36:32.351Z,-3.60
2019-02-06T07:39:01.884Z,-3.60
2019-02-06T07:41:31.433Z,-3.60
2019-02-06T07:44:01.728Z,-3.70
2019-02-06T07:46:31.282Z,-3.60
2019-02-06T07:49:00.870Z,-3.80
2019-02-06T07:51:30.495Z,-3.80
2019-02-06T07:54:00.088Z,-3.90
2019-02-06T07:56:29.639Z,-3.80
2019-02-06T07:58:59.211Z,-3.80
2019-02-06T08:01:28.787Z,-3.60
2019-02-06T08:03:58.707Z,-3.70
2019-02-06T08:06:28.275Z,-3.60
2019-02-06T08:08:57.926Z,-3.60
2019-02-06T08:11:27.617Z,-3.50
2019-02-06T08:13:57.159Z,-3.20
2019-02-06T08:16:26.767Z,-3.10
2019-02-06T08:18:56.328Z,-2.90
2019-02-06T08:21:25.975Z,-2.50
2019-02-06T08:23:56.102Z,-2.30
2019-02-06T08:26:25.659Z,-2.20
2019-02-06T08:28:55.272Z,-2.40
2019-02-06T08:31:24.835Z,-2.50
2019-02-06T08:33:54.410Z,-2.60
2019-02-06T08:36:23.959Z,-2.40
2019-02-06T08:38:55.524Z,-2.70
2019-02-06T08:41:24.792Z,-2.90
2019-02-06T08:43:54.381Z,-3.10
2019-02-06T08:46:23.936Z,-3.20
2019-02-06T08:48:53.538Z,-3.20
2019-02-06T08:51:23.096Z,-3.10
2019-02-06T08:53:52.704Z,-3.20
2019-02-06T08:56:22.260Z,-3.10
2019-02-06T08:58:51.835Z,-3.10
2019-02-06T09:01:21.417Z,-3.10
2019-02-06T09:03:51.026Z,-3.20
2019-02-06T09:06:20.959Z,-3.10
2019-02-06T09:08:59.429Z,-3.10
2019-02-06T09:11:21.777Z,-3.10
2019-02-06T09:13:51.423Z,-3.20
2019-02-06T09:16:20.983Z,-3.20
2019-02-06T09:18:50.575Z,-3.10
2019-02-06T09:21:20.515Z,-3.10
2019-02-06T09:23:50.429Z,-3.00
2019-02-06T09:26:19.944Z,-3.00
2019-02-06T09:28:49.670Z,-3.00
2019-02-06T09:31:19.430Z,-2.90
2019-02-06T09:33:49.009Z,-2.80
2019-02-06T09:36:18.607Z,-2.70
2019-02-06T09:38:48.179Z,-2.60
2019-02-06T09:41:17.748Z,-2.50
2019-02-06T09:43:48.358Z,-2.50
2019-02-06T09:46:17.923Z,-2.70
2019-02-06T09:48:47.845Z,-2.60
2019-02-06T09:51:19.214Z,-2.80
2019-02-06T09:53:48.685Z,-2.60
2019-02-06T09:56:18.253Z,-2.50
2019-02-06T09:58:48.898Z,-2.60
2019-02-06T10:01:21.263Z,-2.60
2019-02-06T10:03:49.729Z,-2.60
2019-02-06T10:06:19.338Z,-2.50
2019-02-06T10:08:49.192Z,-2.30
2019-02-06T10:11:18.860Z,-2.20
2019-02-06T10:13:48.512Z,-2.20
2019-02-06T10:16:20.169Z,-2.20
2019-02-06T10:18:49.194Z,-2.20
2019-02-06T10:21:18.794Z,-2.10
2019-02-06T10:23:48.666Z,-2.10
2019-02-06T10:26:18.306Z,-2.10
2019-02-06T10:28:47.934Z,-1.90
2019-02-06T10:31:17.548Z,-1.90
2019-02-06T10:33:47.086Z,-1.90
2019-02-06T10:36:16.689Z,-1.80
2019-02-06T10:38:46.313Z,-1.80
2019-02-06T10:41:15.947Z,-1.70
2019-02-06T10:43:45.529Z,-1.70
2019-02-06T10:46:18.180Z,-1.70
2019-02-06T10:48:46.490Z,-1.70
2019-02-06T10:51:17.496Z,-1.60
2019-02-06T10:53:47.126Z,-1.50
2019-02-06T10:56:16.712Z,-1.50
2019-02-06T10:58:46.287Z,-1.60
2019-02-06T11:01:15.956Z,-1.40
2019-02-06T11:03:45.522Z,-1.40
2019-02-06T11:06:15.095Z,-1.30
2019-02-06T11:08:44.639Z,-1.20
2019-02-06T11:11:14.274Z,-1.10
2019-02-06T11:13:43.808Z,-0.80
2019-02-06T11:16:13.419Z,-0.80
2019-02-06T11:18:44.518Z,-0.80
2019-02-06T11:21:14.279Z,-0.80
2019-02-06T11:23:43.950Z,-0.80
2019-02-06T11:26:13.498Z,-0.80
2019-02-06T11:28:43.073Z,-0.80
2019-02-06T11:31:13.246Z,-0.80
2019-02-06T11:33:42.878Z,-0.90
2019-02-06T11:36:23.570Z,-0.60
2019-02-06T11:38:43.699Z,-0.90
2019-02-06T11:41:13.256Z,-0.90
2019-02-06T11:43:42.805Z,-0.80
2019-02-06T11:46:12.446Z,-0.90
2019-02-06T11:48:43.410Z,-0.80
2019-02-06T11:51:13.350Z,-0.60
2019-02-06T11:53:42.889Z,-0.50
2019-02-06T11:56:12.562Z,-0.30
2019-02-06T11:58:42.123Z,-0.40
2019-02-06T12:01:24.229Z,-0.50
2019-02-06T12:03:54.506Z,-0.30
2019-02-06T12:06:24.114Z,-0.20
2019-02-06T12:08:53.839Z,-0.10
2019-02-06T12:11:23.439Z,-0.10
2019-02-06T12:13:52.971Z,-0.20
2019-02-06T12:16:22.621Z,0.10
2019-02-06T12:18:52.486Z,0.20
2019-02-06T12:21:22.394Z,0.20
2019-02-06T12:23:51.922Z,0.40
2019-02-06T12:26:21.808Z,0.50
2019-02-06T12:28:51.358Z,0.70
2019-02-06T12:31:20.990Z,0.50
2019-02-06T12:33:50.924Z,0.50
2019-02-06T12:36:20.539Z,0.50
2019-02-06T12:38:53.665Z,1.00
2019-02-06T12:41:25.369Z,1.30
2019-02-06T12:43:54.983Z,1.30
2019-02-06T12:46:24.590Z,1.60
2019-02-06T12:48:54.129Z,1.70
2019-02-06T12:51:23.932Z,1.70
2019-02-06T12:53:53.481Z,1.70
2019-02-06T12:56:25.410Z,1.70
2019-02-06T12:58:55.017Z,1.60
2019-02-06T13:01:24.554Z,1.70
2019-02-06T13:03:54.148Z,1.70
2019-02-06T13:06:23.897Z,1.80
2019-02-06T13:08:53.472Z,1.80
2019-02-06T13:11:23.029Z,2.10
2019-02-06T13:13:55.374Z,2.10
2019-02-06T13:16:24.974Z,1.90
2019-02-06T13:18:54.526Z,2.30
2019-02-06T13:21:24.115Z,2.30
2019-02-06T13:23:53.692Z,2.00
2019-02-06T13:26:23.300Z,1.90
2019-02-06T13:28:52.829Z,1.70
2019-02-06T13:31:22.397Z,2.20
2019-02-06T13:33:51.934Z,2.20
2019-02-06T13:36:21.535Z,2.30
2019-02-06T13:38:51.060Z,3.00
2019-02-06T13:41:20.642Z,3.00
2019-02-06T13:43:50.186Z,3.40
2019-02-06T13:46:19.777Z,3.00
2019-02-06T13:48:49.343Z,2.80
2019-02-06T13:51:19.704Z,3.00
2019-02-06T13:53:49.451Z,3.10
2019-02-06T13:56:19.073Z,3.10
2019-02-06T13:58:48.623Z,2.50
2019-02-06T14:01:25.435Z,2.10
2019-02-06T14:03:49.438Z,2.10
2019-02-06T14:06:19.084Z,2.00
2019-02-06T14:08:48.625Z,2.00
2019-02-06T14:11:18.254Z,1.90
2019-02-06T14:13:47.875Z,1.60
2019-02-06T14:16:18.050Z,1.50
2019-02-06T14:18:48.014Z,1.20
2019-02-06T14:21:17.711Z,1.00
2019-02-06T14:23:59.035Z,1.10
2019-02-06T14:26:48.435Z,0.90
2019-02-06T14:30:07.666Z,0.90
2019-02-06T14:33:28.689Z,0.80
2019-02-06T14:36:06.331Z,0.70
2019-02-06T14:39:10.417Z,0.60
2019-02-06T14:42:03.494Z,0.60
2019-02-06T14:45:06.461Z,0.50
2019-02-06T14:48:08.093Z,0.50
2019-02-06T14:51:01.938Z,0.60
2019-02-06T14:53:52.360Z,0.60
2019-02-06T14:57:02.152Z,0.60
2019-02-06T15:00:13.402Z,0.50
2019-02-06T15:03:19.412Z,0.40
2019-02-06T15:06:21.359Z,0.40
2019-02-06T15:09:32.379Z,0.50
2019-02-06T15:12:33.994Z,0.50
2019-02-06T15:15:30.154Z,0.80
2019-02-06T15:18:43.431Z,1.00
2019-02-06T15:21:51.050Z,0.80
2019-02-06T15:24:44.500Z,1.00
2019-02-06T15:27:49.873Z,0.70
2019-02-06T15:31:12.178Z,0.50
2019-02-06T15:34:10.875Z,0.30
2019-02-06T15:37:15.884Z,0.00
2019-02-06T15:40:17.238Z,-0.30
2019-02-06T15:43:16.881Z,-0.40
2019-02-06T15:46:15.965Z,-0.70
2019-02-06T15:49:38.818Z,-0.80
2019-02-06T15:52:37.389Z,-0.90
2019-02-06T15:55:46.815Z,-1.10
2019-02-06T15:58:51.149Z,-1.10
2019-02-06T16:02:04.215Z,-1.20
2019-02-06T16:05:42.554Z,-1.30
2019-02-06T16:08:45.671Z,-1.40
2019-02-06T16:11:42.521Z,-1.60
2019-02-06T16:14:39.460Z,-1.50
2019-02-06T16:17:45.444Z,-1.60
2019-02-06T16:20:57.091Z,-1.80
2019-02-06T16:24:05.174Z,-1.90
2019-02-06T16:27:09.464Z,-2.00
2019-02-06T16:30:09.475Z,-1.80
2019-02-06T16:33:26.015Z,-2.00
2019-02-06T16:36:35.677Z,-2.20
2019-02-06T16:39:23.513Z,-2.30
2019-02-06T16:42:45.471Z,-2.40
2019-02-06T16:45:48.247Z,-2.40
2019-02-06T16:49:01.338Z,-2.60
2019-02-06T16:51:55.887Z,-2.60
2019-02-06T16:55:06.528Z,-2.60
2019-02-06T16:58:25.139Z,-2.70
2019-02-06T17:01:27.623Z,-2.70
2019-02-06T17:04:26.474Z,-2.80
2019-02-06T17:07:24.492Z,-2.80
2019-02-06T17:10:30.689Z,-2.80
2019-02-06T17:13:38.502Z,-2.90
2019-02-06T17:16:42.520Z,-2.90
2019-02-06T17:19:32.873Z,-3.00
2019-02-06T17:22:18.447Z,-3.00
2019-02-06T17:25:17.483Z,-3.00
2019-02-06T17:28:01.105Z,-3.10
2019-02-06T17:30:53.715Z,-3.20
2019-02-06T17:33:49.845Z,-3.20
2019-02-06T17:36:44.786Z,-3.20
2019-02-06T17:39:25.635Z,-3.10
2019-02-06T17:42:20.312Z,-3.10
2019-02-06T17:45:13.248Z,-3.20
2019-02-06T17:48:31.814Z,-3.30
2019-02-06T17:51:30.200Z,-3.30
2019-02-06T17:54:12.487Z,-3.20
2019-02-06T17:56:42.026Z,-3.30
2019-02-06T17:59:11.667Z,-3.40
2019-02-06T18:01:55.834Z,-3.40
2019-02-06T18:04:29.422Z,-3.40
2019-02-06T18:06:59.402Z,-3.40
2019-02-06T18:09:28.929Z,-3.40
2019-02-06T18:11:58.533Z,-3.40
2019-02-06T18:14:28.140Z,-3.50
2019-02-06T18:16:57.835Z,-3.50
2019-02-06T18:19:27.411Z,-3.50
2019-02-06T18:21:57.034Z,-3.60
2019-02-06T18:24:26.578Z,-3.60
2019-02-06T18:26:56.330Z,-3.60
2019-02-06T18:29:25.871Z,-3.60
2019-02-06T18:31:55.603Z,-3.60
2019-02-06T18:34:25.225Z,-3.60
2019-02-06T18:36:55.207Z,-3.70
2019-02-06T18:39:24.739Z,-3.70
2019-02-06T18:41:54.418Z,-3.70
2019-02-06T18:44:25.181Z,-3.70
2019-02-06T18:46:55.872Z,-3.70
2019-02-06T18:49:25.395Z,-3.70
2019-02-06T18:51:55.042Z,-3.80
2019-02-06T18:54:24.894Z,-3.80
2019-02-06T18:56:54.498Z,-3.80
2019-02-06T18:59:24.260Z,-3.90
2019-02-06T19:01:55.532Z,-3.90
2019-02-06T19:04:26.252Z,-3.90
2019-02-06T19:06:55.918Z,-4.00
2019-02-06T19:09:25.444Z,-4.00
2019-02-06T19:11:54.984Z,-4.00
2019-02-06T19:14:24.620Z,-4.00
2019-02-06T19:16:54.173Z,-3.90
2019-02-06T19:19:25.567Z,-3.80
2019-02-06T19:21:54.906Z,-3.90
2019-02-06T19:24:24.628Z,-3.80
2019-02-06T19:26:54.145Z,-3.80
2019-02-06T19:29:24.008Z,-3.80
2019-02-06T19:31:53.633Z,-3.80
2019-02-06T19:34:23.376Z,-3.80
2019-02-06T19:36:53.006Z,-3.80
2019-02-06T19:39:22.551Z,-3.80
2019-02-06T19:41:52.150Z,-3.80
2019-02-06T19:44:21.737Z,-3.80
2019-02-06T19:46:51.603Z,-3.80
2019-02-06T19:49:21.323Z,-3.80
2019-02-06T19:51:50.962Z,-3.80
2019-02-06T19:54:20.498Z,-3.80
2019-02-06T19:56:50.138Z,-3.80
2019-02-06T19:59:19.760Z,-3.80
2019-02-06T20:01:49.306Z,-3.80
2019-02-06T20:04:19.121Z,-3.80
2019-02-06T20:06:49.328Z,-3.80
2019-02-06T20:09:18.954Z,-3.80
2019-02-06T20:11:48.467Z,-3.90
2019-02-06T20:14:18.277Z,-3.90
2019-02-06T20:16:48.016Z,-3.90
2019-02-06T20:19:17.518Z,-3.90
2019-02-06T20:21:47.130Z,-3.90
2019-02-06T20:24:16.723Z,-4.00
2019-02-06T20:26:46.282Z,-4.00
2019-02-06T20:29:15.842Z,-4.00
2019-02-06T20:31:45.411Z,-4.00
2019-02-06T20:34:15.006Z,-4.00
2019-02-06T20:36:44.941Z,-4.00
2019-02-06T20:39:14.577Z,-4.00
2019-02-06T20:41:44.090Z,-4.00
2019-02-06T20:44:14.988Z,-4.00
2019-02-06T20:46:44.541Z,-4.10
2019-02-06T20:49:14.115Z,-4.10
2019-02-06T20:51:43.649Z,-4.20
2019-02-06T20:54:13.307Z,-4.20
2019-02-06T20:56:42.873Z,-4.20
2019-02-06T20:59:12.475Z,-4.30
2019-02-06T21:01:42.071Z,-4.40
2019-02-06T21:04:11.599Z,-4.40
2019-02-06T21:06:41.175Z,-4.50
2019-02-06T21:09:17.054Z,-4.50
2019-02-06T21:11:46.622Z,-4.50
2019-02-06T21:14:16.194Z,-4.50
2019-02-06T21:16:45.877Z,-4.50
2019-02-06T21:19:15.459Z,-4.60
2019-02-06T21:21:44.982Z,-4.60
2019-02-06T21:24:14.632Z,-4.60
2019-02-06T21:26:44.582Z,-4.60
2019-02-06T21:29:14.246Z,-4.60
2019-02-06T21:31:43.886Z,-4.50
2019-02-06T21:34:13.467Z,-4.60
2019-02-06T21:36:43.009Z,-4.60
2019-02-06T21:39:12.622Z,-4.60
2019-02-06T21:41:42.250Z,-4.50
2019-02-06T21:44:11.934Z,-4.60
2019-02-06T21:46:41.482Z,-4.60
2019-02-06T21:49:11.405Z,-4.60
2019-02-06T21:51:40.924Z,-4.60
2019-02-06T21:54:10.523Z,-4.60
2019-02-06T21:56:40.073Z,-4.60
2019-02-06T21:59:11.663Z,-4.60
2019-02-06T22:01:40.887Z,-4.60
2019-02-06T22:04:13.367Z,-4.60
2019-02-06T22:06:43.134Z,-4.50
2019-02-06T22:09:12.702Z,-4.50
2019-02-06T22:11:42.313Z,-4.50
2019-02-06T22:14:11.875Z,-4.50
2019-02-06T22:16:41.483Z,-4.50
2019-02-06T22:19:11.052Z,-4.50
2019-02-06T22:21:40.618Z,-4.50
2019-02-06T22:24:10.206Z,-4.50
2019-02-06T22:26:39.786Z,-4.50
2019-02-06T22:29:09.367Z,-4.60
2019-02-06T22:31:38.899Z,-4.60
2019-02-06T22:34:08.482Z,-4.60
2019-02-06T22:36:38.039Z,-4.60
2019-02-06T22:39:11.796Z,-4.50
2019-02-06T22:41:41.361Z,-4.40
2019-02-06T22:44:10.909Z,-4.30
2019-02-06T22:46:40.509Z,-4.30
2019-02-06T22:49:10.385Z,-4.30
2019-02-06T22:51:39.930Z,-4.30
2019-02-06T22:54:09.507Z,-4.30
2019-02-06T22:56:41.140Z,-4.40
2019-02-06T22:59:10.366Z,-4.40
2019-02-06T23:01:49.410Z,-4.50
2019-02-06T23:04:18.987Z,-4.50
2019-02-06T23:06:48.587Z,-4.50
2019-02-06T23:09:18.166Z,-4.60
2019-02-06T23:11:47.702Z,-4.50
2019-02-06T23:14:19.771Z,-4.50
2019-02-06T23:16:48.570Z,-4.50
2019-02-06T23:19:18.206Z,-4.50
2019-02-06T23:21:47.764Z,-4.60
2019-02-06T23:24:17.301Z,-4.50
2019-02-06T23:26:46.936Z,-4.50
2019-02-06T23:29:16.403Z,-4.60
2019-02-06T23:31:46.003Z,-4.50
2019-02-06T23:34:15.586Z,-4.50
2019-02-06T23:36:45.150Z,-4.50
2019-02-06T23:39:16.689Z,-4.60
2019-02-06T23:41:46.239Z,-4.60
2019-02-06T23:44:16.137Z,-4.60
2019-02-06T23:46:45.667Z,-4.60
2019-02-06T23:49:15.251Z,-4.60
2019-02-06T23:51:44.818Z,-4.50
2019-02-06T23:54:14.428Z,-4.50
2019-02-06T23:56:44.033Z,-4.50
2019-02-06T23:59:13.955Z,-4.50
